CheckWX is a tool to help pilots better visualize weather data.  It is not intended as a substitute for an official pre-flight weather briefing.

00:13:36 UTC

0F2 METAR
Bowie Municipal Airport
Bowie, Texas, USA
Current

19 mins ago

K0F2 202355Z AUTO 13004KT 10SM SCT029 BKN043 OVC110 20/19 A2986 RMK AO2 P0007 60007 T02010190 10263 20201
Observed
Nov-20 @ 23:55 UTC
Wind
  • 130° at 4 KTS
Visibility
10 SM
Flight Rules
VFR
Cloud Levels
  • Scattered at 2,900' AGL
  • Broken at 4,300' AGL
  • Overcast at 11,000' AGL
Temperature
20°C / 68°F
Dewpoint
19°C / 66°F
Humidity
94%
Altimeter
29.86" Hg
Pressure
1011.22 hPa
Current Rain
0.07"
Previous

39 mins ago

K0F2 202335Z AUTO 13005KT 3SM RA SCT026 BKN041 OVC055 21/19 A2987 RMK AO2 P0006 T02050190
Observed
Nov-20 @ 23:35 UTC
Wind
  • 130° at 5 KTS
Visibility
3 SM
Flight Rules
MVFR
Conditions
Rain
Cloud Levels
  • Scattered at 2,600' AGL
  • Broken at 4,100' AGL
  • Overcast at 5,500' AGL
Temperature
21°C / 70°F
Dewpoint
19°C / 66°F
Humidity
88%
Altimeter
29.87" Hg
Pressure
1011.52 hPa
Current Rain
0.06"
Previous

59 mins ago

K0F2 202315Z AUTO 15004KT 10SM -RA BKN043 OVC048 23/18 A2989 RMK AO2 T02300175
Observed
Nov-20 @ 23:15 UTC
Wind
  • 150° at 4 KTS
Visibility
10 SM
Flight Rules
VFR
Conditions
Light Rain
Cloud Levels
  • Broken at 4,300' AGL
  • Overcast at 4,800' AGL
Temperature
23°C / 73°F
Dewpoint
18°C / 64°F
Humidity
74%
Altimeter
29.89" Hg
Pressure
1012.22 hPa